sensor_id;sensor_type;location;lat;lon;timestamp;P1;durP1;ratioP1;P2;durP2;ratioP2
10731;SDS011;5417;42.686;23.244;2022-12-07T00:01:17;24.83;;;19.17;;
10731;SDS011;5417;42.686;23.244;2022-12-07T00:03:46;29.10;;;19.77;;
10731;SDS011;5417;42.686;23.244;2022-12-07T00:06:14;26.10;;;20.57;;
10731;SDS011;5417;42.686;23.244;2022-12-07T00:08:42;29.50;;;21.33;;
10731;SDS011;5417;42.686;23.244;2022-12-07T00:11:14;27.60;;;20.10;;
10731;SDS011;5417;42.686;23.244;2022-12-07T00:13:44;26.23;;;21.00;;
10731;SDS011;5417;42.686;23.244;2022-12-07T00:16:18;26.97;;;20.00;;
10731;SDS011;5417;42.686;23.244;2022-12-07T00:18:57;29.17;;;21.17;;
10731;SDS011;5417;42.686;23.244;2022-12-07T00:21:25;25.03;;;19.67;;
10731;SDS011;5417;42.686;23.244;2022-12-07T00:23:56;23.60;;;18.67;;
10731;SDS011;5417;42.686;23.244;2022-12-07T00:26:24;25.73;;;19.70;;
10731;SDS011;5417;42.686;23.244;2022-12-07T00:28:56;29.07;;;20.60;;
10731;SDS011;5417;42.686;23.244;2022-12-07T00:31:25;25.87;;;20.10;;
10731;SDS011;5417;42.686;23.244;2022-12-07T00:33:54;26.47;;;19.83;;
10731;SDS011;5417;42.686;23.244;2022-12-07T00:36:29;25.70;;;18.77;;
10731;SDS011;5417;42.686;23.244;2022-12-07T00:39:03;26.20;;;18.33;;
10731;SDS011;5417;42.686;23.244;2022-12-07T00:41:32;23.60;;;19.03;;
10731;SDS011;5417;42.686;23.244;2022-12-07T00:44:00;24.60;;;18.37;;
10731;SDS011;5417;42.686;23.244;2022-12-07T00:46:30;25.50;;;19.37;;
10731;SDS011;5417;42.686;23.244;2022-12-07T00:49:00;20.93;;;17.27;;
10731;SDS011;5417;42.686;23.244;2022-12-07T00:51:27;22.20;;;18.07;;
10731;SDS011;5417;42.686;23.244;2022-12-07T00:53:57;24.27;;;18.07;;
10731;SDS011;5417;42.686;23.244;2022-12-07T00:56:24;22.77;;;17.93;;
10731;SDS011;5417;42.686;23.244;2022-12-07T00:58:53;25.90;;;19.57;;
10731;SDS011;5417;42.686;23.244;2022-12-07T01:01:26;22.80;;;17.73;;
10731;SDS011;5417;42.686;23.244;2022-12-07T01:03:58;23.00;;;18.17;;
10731;SDS011;5417;42.686;23.244;2022-12-07T01:06:26;26.97;;;19.73;;
10731;SDS011;5417;42.686;23.244;2022-12-07T01:08:56;25.70;;;18.67;;
10731;SDS011;5417;42.686;23.244;2022-12-07T01:11:25;25.40;;;18.30;;
10731;SDS011;5417;42.686;23.244;2022-12-07T01:13:57;25.67;;;18.20;;
10731;SDS011;5417;42.686;23.244;2022-12-07T01:16:31;23.93;;;18.27;;
10731;SDS011;5417;42.686;23.244;2022-12-07T01:18:59;22.13;;;17.93;;
10731;SDS011;5417;42.686;23.244;2022-12-07T01:21:30;25.10;;;17.97;;
10731;SDS011;5417;42.686;23.244;2022-12-07T01:23:59;23.07;;;17.83;;
10731;SDS011;5417;42.686;23.244;2022-12-07T01:26:29;25.10;;;18.43;;
10731;SDS011;5417;42.686;23.244;2022-12-07T01:28:56;21.30;;;16.83;;
10731;SDS011;5417;42.686;23.244;2022-12-07T01:31:25;22.23;;;17.47;;
10731;SDS011;5417;42.686;23.244;2022-12-07T01:33:55;22.77;;;16.93;;
10731;SDS011;5417;42.686;23.244;2022-12-07T01:36:26;16.37;;;14.53;;
10731;SDS011;5417;42.686;23.244;2022-12-07T01:38:55;21.27;;;15.83;;
10731;SDS011;5417;42.686;23.244;2022-12-07T01:41:24;18.30;;;15.77;;
10731;SDS011;5417;42.686;23.244;2022-12-07T01:44:10;21.53;;;16.33;;
10731;SDS011;5417;42.686;23.244;2022-12-07T01:46:40;20.03;;;16.03;;
10731;SDS011;5417;42.686;23.244;2022-12-07T01:49:12;20.70;;;16.17;;
10731;SDS011;5417;42.686;23.244;2022-12-07T01:51:44;20.07;;;16.63;;
10731;SDS011;5417;42.686;23.244;2022-12-07T01:54:16;21.00;;;14.60;;
10731;SDS011;5417;42.686;23.244;2022-12-07T01:56:48;24.30;;;15.77;;
10731;SDS011;5417;42.686;23.244;2022-12-07T01:59:22;20.03;;;15.23;;
10731;SDS011;5417;42.686;23.244;2022-12-07T02:01:53;19.27;;;15.03;;
10731;SDS011;5417;42.686;23.244;2022-12-07T02:04:24;20.47;;;17.47;;
10731;SDS011;5417;42.686;23.244;2022-12-07T02:06:51;23.30;;;15.53;;
10731;SDS011;5417;42.686;23.244;2022-12-07T02:09:22;20.97;;;16.80;;
10731;SDS011;5417;42.686;23.244;2022-12-07T02:11:49;19.70;;;15.87;;
10731;SDS011;5417;42.686;23.244;2022-12-07T02:14:17;19.53;;;15.13;;
10731;SDS011;5417;42.686;23.244;2022-12-07T02:16:47;18.47;;;14.73;;
10731;SDS011;5417;42.686;23.244;2022-12-07T02:19:38;19.77;;;15.47;;
10731;SDS011;5417;42.686;23.244;2022-12-07T02:22:33;21.10;;;15.67;;
10731;SDS011;5417;42.686;23.244;2022-12-07T02:25:30;21.80;;;15.50;;
10731;SDS011;5417;42.686;23.244;2022-12-07T02:28:12;18.63;;;15.73;;
10731;SDS011;5417;42.686;23.244;2022-12-07T02:30:54;19.83;;;14.83;;
10731;SDS011;5417;42.686;23.244;2022-12-07T02:33:28;19.23;;;14.90;;
10731;SDS011;5417;42.686;23.244;2022-12-07T02:36:00;19.67;;;14.70;;
10731;SDS011;5417;42.686;23.244;2022-12-07T02:38:37;17.63;;;14.37;;
10731;SDS011;5417;42.686;23.244;2022-12-07T02:41:07;19.93;;;14.77;;
10731;SDS011;5417;42.686;23.244;2022-12-07T02:43:42;19.87;;;14.53;;
10731;SDS011;5417;42.686;23.244;2022-12-07T02:46:16;22.37;;;16.57;;
10731;SDS011;5417;42.686;23.244;2022-12-07T02:48:48;19.63;;;15.43;;
10731;SDS011;5417;42.686;23.244;2022-12-07T02:51:24;19.63;;;15.47;;
10731;SDS011;5417;42.686;23.244;2022-12-07T02:53:55;18.57;;;15.10;;
10731;SDS011;5417;42.686;23.244;2022-12-07T02:56:33;20.53;;;15.70;;
10731;SDS011;5417;42.686;23.244;2022-12-07T02:59:09;19.33;;;15.67;;
10731;SDS011;5417;42.686;23.244;2022-12-07T03:01:48;21.50;;;16.60;;
10731;SDS011;5417;42.686;23.244;2022-12-07T03:07:14;20.30;;;16.17;;
10731;SDS011;5417;42.686;23.244;2022-12-07T03:09:50;58.03;;;39.43;;
10731;SDS011;5417;42.686;23.244;2022-12-07T03:12:27;24.20;;;17.60;;
10731;SDS011;5417;42.686;23.244;2022-12-07T03:15:05;22.87;;;16.70;;
10731;SDS011;5417;42.686;23.244;2022-12-07T03:17:38;20.47;;;16.23;;
10731;SDS011;5417;42.686;23.244;2022-12-07T03:20:09;18.63;;;15.40;;
10731;SDS011;5417;42.686;23.244;2022-12-07T03:22:39;18.17;;;15.30;;
10731;SDS011;5417;42.686;23.244;2022-12-07T03:25:11;20.30;;;15.10;;
10731;SDS011;5417;42.686;23.244;2022-12-07T03:27:42;22.60;;;16.07;;
10731;SDS011;5417;42.686;23.244;2022-12-07T03:30:16;19.47;;;14.83;;
10731;SDS011;5417;42.686;23.244;2022-12-07T03:32:52;22.43;;;16.23;;
10731;SDS011;5417;42.686;23.244;2022-12-07T03:35:23;20.70;;;16.03;;
10731;SDS011;5417;42.686;23.244;2022-12-07T03:37:55;21.43;;;15.67;;
10731;SDS011;5417;42.686;23.244;2022-12-07T03:40:28;21.27;;;15.80;;
10731;SDS011;5417;42.686;23.244;2022-12-07T03:43:04;19.63;;;15.87;;
10731;SDS011;5417;42.686;23.244;2022-12-07T03:45:33;20.07;;;16.33;;
10731;SDS011;5417;42.686;23.244;2022-12-07T03:48:10;22.63;;;17.77;;
10731;SDS011;5417;42.686;23.244;2022-12-07T03:50:50;23.10;;;17.60;;
10731;SDS011;5417;42.686;23.244;2022-12-07T03:53:24;22.97;;;17.57;;
10731;SDS011;5417;42.686;23.244;2022-12-07T03:56:07;20.13;;;15.57;;
10731;SDS011;5417;42.686;23.244;2022-12-07T03:58:37;20.70;;;16.67;;
10731;SDS011;5417;42.686;23.244;2022-12-07T04:01:05;20.87;;;16.43;;
10731;SDS011;5417;42.686;23.244;2022-12-07T04:03:33;19.83;;;16.27;;
10731;SDS011;5417;42.686;23.244;2022-12-07T04:06:03;21.27;;;16.67;;
10731;SDS011;5417;42.686;23.244;2022-12-07T04:08:31;19.37;;;15.83;;
10731;SDS011;5417;42.686;23.244;2022-12-07T04:10:58;20.93;;;16.43;;
10731;SDS011;5417;42.686;23.244;2022-12-07T04:13:25;22.17;;;16.70;;
10731;SDS011;5417;42.686;23.244;2022-12-07T04:15:52;21.73;;;16.47;;
10731;SDS011;5417;42.686;23.244;2022-12-07T04:18:19;21.07;;;15.97;;
10731;SDS011;5417;42.686;23.244;2022-12-07T04:20:48;19.63;;;16.20;;
10731;SDS011;5417;42.686;23.244;2022-12-07T04:23:15;21.47;;;16.40;;
10731;SDS011;5417;42.686;23.244;2022-12-07T04:25:47;20.73;;;16.63;;
10731;SDS011;5417;42.686;23.244;2022-12-07T04:28:18;20.13;;;16.00;;
10731;SDS011;5417;42.686;23.244;2022-12-07T04:30:45;21.07;;;15.80;;
10731;SDS011;5417;42.686;23.244;2022-12-07T04:33:12;21.20;;;14.97;;
10731;SDS011;5417;42.686;23.244;2022-12-07T04:35:41;19.03;;;15.43;;
10731;SDS011;5417;42.686;23.244;2022-12-07T04:38:10;20.43;;;15.77;;
10731;SDS011;5417;42.686;23.244;2022-12-07T04:40:37;19.17;;;15.13;;
10731;SDS011;5417;42.686;23.244;2022-12-07T04:43:04;20.27;;;14.57;;
10731;SDS011;5417;42.686;23.244;2022-12-07T04:45:31;21.17;;;15.47;;
10731;SDS011;5417;42.686;23.244;2022-12-07T04:47:57;22.10;;;16.23;;
10731;SDS011;5417;42.686;23.244;2022-12-07T04:50:24;22.37;;;15.97;;
10731;SDS011;5417;42.686;23.244;2022-12-07T04:52:51;21.60;;;15.33;;
10731;SDS011;5417;42.686;23.244;2022-12-07T04:55:20;21.00;;;15.33;;
10731;SDS011;5417;42.686;23.244;2022-12-07T04:57:47;21.20;;;16.17;;
10731;SDS011;5417;42.686;23.244;2022-12-07T05:02:44;19.70;;;14.27;;
10731;SDS011;5417;42.686;23.244;2022-12-07T05:05:11;21.63;;;16.20;;
10731;SDS011;5417;42.686;23.244;2022-12-07T05:07:38;21.03;;;15.40;;
10731;SDS011;5417;42.686;23.244;2022-12-07T05:10:05;22.30;;;16.10;;
10731;SDS011;5417;42.686;23.244;2022-12-07T05:12:34;21.77;;;15.53;;
10731;SDS011;5417;42.686;23.244;2022-12-07T05:15:01;19.23;;;14.77;;
10731;SDS011;5417;42.686;23.244;2022-12-07T05:17:28;20.10;;;15.17;;
10731;SDS011;5417;42.686;23.244;2022-12-07T05:19:55;23.70;;;16.63;;
10731;SDS011;5417;42.686;23.244;2022-12-07T05:22:22;21.63;;;16.20;;
10731;SDS011;5417;42.686;23.244;2022-12-07T05:27:32;23.70;;;17.10;;
10731;SDS011;5417;42.686;23.244;2022-12-07T05:30:00;23.33;;;17.07;;
10731;SDS011;5417;42.686;23.244;2022-12-07T05:32:27;20.53;;;16.60;;
10731;SDS011;5417;42.686;23.244;2022-12-07T05:34:59;24.27;;;17.07;;
10731;SDS011;5417;42.686;23.244;2022-12-07T05:40:12;22.17;;;16.17;;
10731;SDS011;5417;42.686;23.244;2022-12-07T05:42:50;24.53;;;16.33;;
10731;SDS011;5417;42.686;23.244;2022-12-07T05:45:30;22.37;;;17.30;;
10731;SDS011;5417;42.686;23.244;2022-12-07T05:47:57;22.23;;;16.43;;
10731;SDS011;5417;42.686;23.244;2022-12-07T05:50:24;22.53;;;15.53;;
10731;SDS011;5417;42.686;23.244;2022-12-07T05:52:53;21.40;;;16.40;;
10731;SDS011;5417;42.686;23.244;2022-12-07T05:55:20;22.20;;;16.30;;
10731;SDS011;5417;42.686;23.244;2022-12-07T05:57:47;22.73;;;15.37;;
10731;SDS011;5417;42.686;23.244;2022-12-07T06:00:30;22.90;;;15.90;;
10731;SDS011;5417;42.686;23.244;2022-12-07T06:03:10;23.50;;;15.90;;
10731;SDS011;5417;42.686;23.244;2022-12-07T06:05:38;22.70;;;16.93;;
10731;SDS011;5417;42.686;23.244;2022-12-07T06:08:06;25.33;;;18.23;;
10731;SDS011;5417;42.686;23.244;2022-12-07T06:10:33;25.33;;;19.60;;
10731;SDS011;5417;42.686;23.244;2022-12-07T06:13:02;30.17;;;21.03;;
10731;SDS011;5417;42.686;23.244;2022-12-07T06:15:33;24.63;;;18.97;;
10731;SDS011;5417;42.686;23.244;2022-12-07T06:18:05;26.93;;;18.17;;
10731;SDS011;5417;42.686;23.244;2022-12-07T06:20:31;27.33;;;19.93;;
10731;SDS011;5417;42.686;23.244;2022-12-07T06:22:58;27.03;;;19.97;;
10731;SDS011;5417;42.686;23.244;2022-12-07T06:25:28;24.27;;;17.47;;
10731;SDS011;5417;42.686;23.244;2022-12-07T06:27:55;24.77;;;16.40;;
10731;SDS011;5417;42.686;23.244;2022-12-07T06:30:22;26.30;;;18.40;;
10731;SDS011;5417;42.686;23.244;2022-12-07T06:32:51;23.07;;;17.70;;
10731;SDS011;5417;42.686;23.244;2022-12-07T06:35:17;25.50;;;19.63;;
10731;SDS011;5417;42.686;23.244;2022-12-07T06:37:46;26.30;;;20.30;;
10731;SDS011;5417;42.686;23.244;2022-12-07T06:40:14;25.07;;;18.50;;
10731;SDS011;5417;42.686;23.244;2022-12-07T06:42:41;24.83;;;18.53;;
10731;SDS011;5417;42.686;23.244;2022-12-07T06:45:08;27.93;;;19.63;;
10731;SDS011;5417;42.686;23.244;2022-12-07T06:47:42;24.13;;;18.23;;
10731;SDS011;5417;42.686;23.244;2022-12-07T06:50:11;26.47;;;19.17;;
10731;SDS011;5417;42.686;23.244;2022-12-07T06:52:39;24.67;;;17.67;;
10731;SDS011;5417;42.686;23.244;2022-12-07T06:55:08;24.43;;;17.97;;
10731;SDS011;5417;42.686;23.244;2022-12-07T06:57:42;26.40;;;18.30;;
10731;SDS011;5417;42.686;23.244;2022-12-07T07:00:13;25.03;;;17.27;;
10731;SDS011;5417;42.686;23.244;2022-12-07T07:02:49;26.83;;;18.03;;
10731;SDS011;5417;42.686;23.244;2022-12-07T07:05:17;22.63;;;17.10;;
10731;SDS011;5417;42.686;23.244;2022-12-07T07:07:47;25.50;;;18.47;;
10731;SDS011;5417;42.686;23.244;2022-12-07T07:10:14;28.83;;;19.90;;
10731;SDS011;5417;42.686;23.244;2022-12-07T07:12:41;26.30;;;18.67;;
10731;SDS011;5417;42.686;23.244;2022-12-07T07:15:11;42.53;;;20.80;;
10731;SDS011;5417;42.686;23.244;2022-12-07T07:17:41;27.73;;;20.57;;
10731;SDS011;5417;42.686;23.244;2022-12-07T07:22:53;28.13;;;20.67;;
10731;SDS011;5417;42.686;23.244;2022-12-07T07:25:21;29.97;;;21.10;;
10731;SDS011;5417;42.686;23.244;2022-12-07T07:27:48;30.77;;;19.50;;
10731;SDS011;5417;42.686;23.244;2022-12-07T07:30:20;28.03;;;19.60;;
10731;SDS011;5417;42.686;23.244;2022-12-07T07:32:50;29.57;;;19.93;;
10731;SDS011;5417;42.686;23.244;2022-12-07T07:35:26;31.93;;;22.20;;
10731;SDS011;5417;42.686;23.244;2022-12-07T07:37:54;32.07;;;21.47;;
10731;SDS011;5417;42.686;23.244;2022-12-07T07:40:21;30.20;;;21.33;;
10731;SDS011;5417;42.686;23.244;2022-12-07T07:42:56;34.53;;;22.00;;
10731;SDS011;5417;42.686;23.244;2022-12-07T07:45:24;30.80;;;21.30;;
10731;SDS011;5417;42.686;23.244;2022-12-07T07:47:53;32.17;;;21.73;;
10731;SDS011;5417;42.686;23.244;2022-12-07T07:50:20;29.67;;;22.77;;
10731;SDS011;5417;42.686;23.244;2022-12-07T07:52:49;32.73;;;22.70;;
10731;SDS011;5417;42.686;23.244;2022-12-07T07:55:22;36.47;;;23.40;;
10731;SDS011;5417;42.686;23.244;2022-12-07T07:57:51;33.10;;;21.30;;
10731;SDS011;5417;42.686;23.244;2022-12-07T08:00:22;30.90;;;21.57;;
10731;SDS011;5417;42.686;23.244;2022-12-07T08:02:51;35.80;;;26.60;;
10731;SDS011;5417;42.686;23.244;2022-12-07T08:05:20;37.53;;;25.60;;
10731;SDS011;5417;42.686;23.244;2022-12-07T08:07:49;34.77;;;23.63;;
10731;SDS011;5417;42.686;23.244;2022-12-07T08:10:16;34.57;;;24.80;;
10731;SDS011;5417;42.686;23.244;2022-12-07T08:12:43;31.00;;;23.07;;
10731;SDS011;5417;42.686;23.244;2022-12-07T08:15:28;37.13;;;24.93;;
10731;SDS011;5417;42.686;23.244;2022-12-07T08:17:56;43.47;;;25.13;;
10731;SDS011;5417;42.686;23.244;2022-12-07T08:20:23;35.60;;;24.67;;
10731;SDS011;5417;42.686;23.244;2022-12-07T08:22:53;37.77;;;25.07;;
10731;SDS011;5417;42.686;23.244;2022-12-07T08:25:20;34.73;;;25.03;;
10731;SDS011;5417;42.686;23.244;2022-12-07T08:27:47;45.20;;;33.33;;
10731;SDS011;5417;42.686;23.244;2022-12-07T08:30:14;36.57;;;28.17;;
10731;SDS011;5417;42.686;23.244;2022-12-07T08:32:43;35.60;;;24.93;;
10731;SDS011;5417;42.686;23.244;2022-12-07T08:35:12;35.13;;;23.87;;
10731;SDS011;5417;42.686;23.244;2022-12-07T08:37:41;34.27;;;24.87;;
10731;SDS011;5417;42.686;23.244;2022-12-07T08:42:58;29.27;;;23.53;;
10731;SDS011;5417;42.686;23.244;2022-12-07T08:45:27;31.63;;;23.70;;
10731;SDS011;5417;42.686;23.244;2022-12-07T08:47:59;39.33;;;24.37;;
10731;SDS011;5417;42.686;23.244;2022-12-07T08:50:30;35.80;;;24.47;;
10731;SDS011;5417;42.686;23.244;2022-12-07T08:53:00;41.13;;;31.60;;
10731;SDS011;5417;42.686;23.244;2022-12-07T08:55:27;35.07;;;25.10;;
10731;SDS011;5417;42.686;23.244;2022-12-07T08:58:07;33.57;;;24.83;;
10731;SDS011;5417;42.686;23.244;2022-12-07T09:00:33;36.60;;;25.70;;
10731;SDS011;5417;42.686;23.244;2022-12-07T09:03:00;36.07;;;26.37;;
10731;SDS011;5417;42.686;23.244;2022-12-07T09:08:21;36.00;;;26.23;;
10731;SDS011;5417;42.686;23.244;2022-12-07T09:09:04;39.03;;;27.53;;
10731;SDS011;5417;42.686;23.244;2022-12-07T09:11:31;40.60;;;28.47;;
10731;SDS011;5417;42.686;23.244;2022-12-07T09:13:59;39.07;;;28.57;;
10731;SDS011;5417;42.686;23.244;2022-12-07T09:19:03;37.03;;;28.43;;
10731;SDS011;5417;42.686;23.244;2022-12-07T09:21:30;36.50;;;27.13;;
10731;SDS011;5417;42.686;23.244;2022-12-07T09:23:58;39.67;;;28.30;;
10731;SDS011;5417;42.686;23.244;2022-12-07T09:27:27;37.13;;;27.07;;
10731;SDS011;5417;42.686;23.244;2022-12-07T09:29:35;34.53;;;25.90;;
10731;SDS011;5417;42.686;23.244;2022-12-07T09:32:03;35.77;;;27.53;;
10731;SDS011;5417;42.686;23.244;2022-12-07T09:34:30;34.53;;;26.57;;
10731;SDS011;5417;42.686;23.244;2022-12-07T09:37:03;36.90;;;27.70;;
10731;SDS011;5417;42.686;23.244;2022-12-07T09:39:31;41.50;;;28.70;;
10731;SDS011;5417;42.686;23.244;2022-12-07T09:41:58;41.00;;;28.90;;
10731;SDS011;5417;42.686;23.244;2022-12-07T09:44:29;37.17;;;26.83;;
10731;SDS011;5417;42.686;23.244;2022-12-07T09:46:57;40.33;;;27.37;;
10731;SDS011;5417;42.686;23.244;2022-12-07T09:49:32;37.00;;;28.10;;
10731;SDS011;5417;42.686;23.244;2022-12-07T09:52:00;40.60;;;28.50;;
10731;SDS011;5417;42.686;23.244;2022-12-07T09:54:29;34.03;;;26.70;;
10731;SDS011;5417;42.686;23.244;2022-12-07T09:56:57;41.03;;;28.00;;
10731;SDS011;5417;42.686;23.244;2022-12-07T09:59:25;34.00;;;26.43;;
10731;SDS011;5417;42.686;23.244;2022-12-07T10:02:56;35.93;;;25.40;;
10731;SDS011;5417;42.686;23.244;2022-12-07T10:04:54;34.03;;;24.67;;
10731;SDS011;5417;42.686;23.244;2022-12-07T10:07:24;36.03;;;25.47;;
10731;SDS011;5417;42.686;23.244;2022-12-07T10:09:51;33.00;;;25.27;;
10731;SDS011;5417;42.686;23.244;2022-12-07T10:12:18;39.33;;;24.30;;
10731;SDS011;5417;42.686;23.244;2022-12-07T10:14:53;33.53;;;23.00;;
10731;SDS011;5417;42.686;23.244;2022-12-07T10:17:38;37.70;;;24.27;;
10731;SDS011;5417;42.686;23.244;2022-12-07T10:20:13;36.10;;;23.33;;
10731;SDS011;5417;42.686;23.244;2022-12-07T10:22:55;29.27;;;22.67;;
10731;SDS011;5417;42.686;23.244;2022-12-07T10:53:19;25.47;;;18.90;;
10731;SDS011;5417;42.686;23.244;2022-12-07T10:56:11;23.77;;;19.00;;
10731;SDS011;5417;42.686;23.244;2022-12-07T10:58:57;27.13;;;19.60;;
10731;SDS011;5417;42.686;23.244;2022-12-07T11:01:45;23.00;;;17.33;;
10731;SDS011;5417;42.686;23.244;2022-12-07T11:04:19;21.07;;;15.77;;
10731;SDS011;5417;42.686;23.244;2022-12-07T11:06:58;23.73;;;16.83;;
10731;SDS011;5417;42.686;23.244;2022-12-07T11:09:47;21.07;;;16.23;;
10731;SDS011;5417;42.686;23.244;2022-12-07T11:15:04;21.07;;;14.43;;
10731;SDS011;5417;42.686;23.244;2022-12-07T11:17:43;18.67;;;13.77;;
10731;SDS011;5417;42.686;23.244;2022-12-07T11:20:23;19.83;;;13.50;;
10731;SDS011;5417;42.686;23.244;2022-12-07T11:23:01;21.60;;;16.17;;
10731;SDS011;5417;42.686;23.244;2022-12-07T11:25:38;22.43;;;17.33;;
10731;SDS011;5417;42.686;23.244;2022-12-07T11:28:18;24.43;;;17.63;;
10731;SDS011;5417;42.686;23.244;2022-12-07T11:30:58;27.30;;;18.87;;
10731;SDS011;5417;42.686;23.244;2022-12-07T11:33:35;25.03;;;18.60;;
10731;SDS011;5417;42.686;23.244;2022-12-07T11:36:14;22.00;;;16.77;;
10731;SDS011;5417;42.686;23.244;2022-12-07T11:38:54;23.93;;;17.70;;
10731;SDS011;5417;42.686;23.244;2022-12-07T11:41:27;22.93;;;17.57;;
10731;SDS011;5417;42.686;23.244;2022-12-07T11:44:00;20.07;;;16.07;;
10731;SDS011;5417;42.686;23.244;2022-12-07T11:46:35;22.10;;;16.47;;
10731;SDS011;5417;42.686;23.244;2022-12-07T11:49:12;17.70;;;15.50;;
10731;SDS011;5417;42.686;23.244;2022-12-07T11:51:45;20.40;;;16.17;;
10731;SDS011;5417;42.686;23.244;2022-12-07T11:54:16;19.40;;;14.00;;
10731;SDS011;5417;42.686;23.244;2022-12-07T11:56:49;25.27;;;15.87;;
10731;SDS011;5417;42.686;23.244;2022-12-07T11:59:19;22.50;;;15.60;;
10731;SDS011;5417;42.686;23.244;2022-12-07T12:01:55;24.00;;;14.53;;
10731;SDS011;5417;42.686;23.244;2022-12-07T12:04:44;20.17;;;15.50;;
10731;SDS011;5417;42.686;23.244;2022-12-07T12:07:19;25.13;;;16.97;;
10731;SDS011;5417;42.686;23.244;2022-12-07T12:09:49;27.87;;;16.67;;
10731;SDS011;5417;42.686;23.244;2022-12-07T12:12:34;24.00;;;15.10;;
10731;SDS011;5417;42.686;23.244;2022-12-07T12:15:16;22.83;;;14.97;;
10731;SDS011;5417;42.686;23.244;2022-12-07T12:18:05;21.87;;;15.50;;
10731;SDS011;5417;42.686;23.244;2022-12-07T12:20:53;25.27;;;17.07;;
10731;SDS011;5417;42.686;23.244;2022-12-07T12:23:24;25.47;;;16.50;;
10731;SDS011;5417;42.686;23.244;2022-12-07T12:25:59;27.07;;;17.03;;
10731;SDS011;5417;42.686;23.244;2022-12-07T12:28:31;23.03;;;16.10;;
10731;SDS011;5417;42.686;23.244;2022-12-07T12:31:05;22.83;;;16.07;;
10731;SDS011;5417;42.686;23.244;2022-12-07T12:33:35;21.67;;;15.90;;
10731;SDS011;5417;42.686;23.244;2022-12-07T12:39:09;21.73;;;16.03;;
10731;SDS011;5417;42.686;23.244;2022-12-07T12:41:57;20.30;;;14.67;;
10731;SDS011;5417;42.686;23.244;2022-12-07T12:44:43;21.30;;;15.63;;
10731;SDS011;5417;42.686;23.244;2022-12-07T12:50:37;22.47;;;15.17;;
10731;SDS011;5417;42.686;23.244;2022-12-07T12:53:15;18.63;;;13.50;;
10731;SDS011;5417;42.686;23.244;2022-12-07T12:56:00;19.73;;;14.80;;
10731;SDS011;5417;42.686;23.244;2022-12-07T13:01:52;21.10;;;15.47;;
10731;SDS011;5417;42.686;23.244;2022-12-07T13:04:23;20.57;;;15.40;;
10731;SDS011;5417;42.686;23.244;2022-12-07T13:06:57;25.73;;;16.43;;
10731;SDS011;5417;42.686;23.244;2022-12-07T13:09:24;23.27;;;16.40;;
10731;SDS011;5417;42.686;23.244;2022-12-07T13:11:58;21.10;;;16.23;;
10731;SDS011;5417;42.686;23.244;2022-12-07T13:14:35;16.90;;;14.17;;
10731;SDS011;5417;42.686;23.244;2022-12-07T13:17:10;20.53;;;14.93;;
10731;SDS011;5417;42.686;23.244;2022-12-07T13:25:19;22.43;;;17.47;;
10731;SDS011;5417;42.686;23.244;2022-12-07T13:27:55;23.90;;;16.97;;
10731;SDS011;5417;42.686;23.244;2022-12-07T13:30:24;27.17;;;17.50;;
10731;SDS011;5417;42.686;23.244;2022-12-07T13:32:54;23.97;;;15.43;;
10731;SDS011;5417;42.686;23.244;2022-12-07T13:35:27;21.17;;;14.63;;
10731;SDS011;5417;42.686;23.244;2022-12-07T13:37:59;21.70;;;14.10;;
10731;SDS011;5417;42.686;23.244;2022-12-07T13:40:29;16.87;;;13.07;;
10731;SDS011;5417;42.686;23.244;2022-12-07T13:42:59;22.63;;;15.03;;
10731;SDS011;5417;42.686;23.244;2022-12-07T13:45:29;18.53;;;13.70;;
10731;SDS011;5417;42.686;23.244;2022-12-07T13:48:20;19.63;;;14.80;;
10731;SDS011;5417;42.686;23.244;2022-12-07T13:50:54;21.50;;;14.87;;
10731;SDS011;5417;42.686;23.244;2022-12-07T13:53:22;21.73;;;14.77;;
10731;SDS011;5417;42.686;23.244;2022-12-07T13:55:53;25.87;;;16.30;;
10731;SDS011;5417;42.686;23.244;2022-12-07T13:58:20;20.97;;;15.17;;
10731;SDS011;5417;42.686;23.244;2022-12-07T14:00:48;21.77;;;15.70;;
10731;SDS011;5417;42.686;23.244;2022-12-07T14:03:32;23.87;;;15.27;;
10731;SDS011;5417;42.686;23.244;2022-12-07T14:06:05;23.93;;;15.43;;
10731;SDS011;5417;42.686;23.244;2022-12-07T14:08:44;20.37;;;15.67;;
10731;SDS011;5417;42.686;23.244;2022-12-07T14:11:13;17.70;;;14.33;;
10731;SDS011;5417;42.686;23.244;2022-12-07T14:16:32;19.67;;;12.93;;
10731;SDS011;5417;42.686;23.244;2022-12-07T14:19:02;16.23;;;12.27;;
10731;SDS011;5417;42.686;23.244;2022-12-07T14:21:31;18.33;;;12.17;;
10731;SDS011;5417;42.686;23.244;2022-12-07T14:24:18;14.33;;;11.77;;
10731;SDS011;5417;42.686;23.244;2022-12-07T14:26:47;15.67;;;12.60;;
10731;SDS011;5417;42.686;23.244;2022-12-07T14:29:22;18.33;;;12.47;;
10731;SDS011;5417;42.686;23.244;2022-12-07T14:31:58;20.37;;;13.10;;
10731;SDS011;5417;42.686;23.244;2022-12-07T14:34:53;22.60;;;14.07;;
10731;SDS011;5417;42.686;23.244;2022-12-07T14:37:22;20.93;;;13.70;;
10731;SDS011;5417;42.686;23.244;2022-12-07T14:39:49;15.57;;;13.67;;
10731;SDS011;5417;42.686;23.244;2022-12-07T14:42:16;22.50;;;13.70;;
10731;SDS011;5417;42.686;23.244;2022-12-07T14:44:43;19.60;;;14.17;;
10731;SDS011;5417;42.686;23.244;2022-12-07T14:47:18;20.63;;;14.00;;
10731;SDS011;5417;42.686;23.244;2022-12-07T14:49:47;17.97;;;13.43;;
10731;SDS011;5417;42.686;23.244;2022-12-07T14:52:16;20.90;;;13.70;;
10731;SDS011;5417;42.686;23.244;2022-12-07T14:54:46;18.53;;;14.50;;
10731;SDS011;5417;42.686;23.244;2022-12-07T15:07:10;24.90;;;15.83;;
10731;SDS011;5417;42.686;23.244;2022-12-07T15:09:24;33.53;;;23.43;;
10731;SDS011;5417;42.686;23.244;2022-12-07T15:11:51;31.73;;;23.17;;
10731;SDS011;5417;42.686;23.244;2022-12-07T15:14:18;34.97;;;25.37;;
10731;SDS011;5417;42.686;23.244;2022-12-07T15:16:45;34.93;;;23.13;;
10731;SDS011;5417;42.686;23.244;2022-12-07T15:19:12;23.97;;;15.97;;
10731;SDS011;5417;42.686;23.244;2022-12-07T15:21:41;22.87;;;16.30;;
10731;SDS011;5417;42.686;23.244;2022-12-07T15:24:09;29.17;;;20.00;;
10731;SDS011;5417;42.686;23.244;2022-12-07T15:26:38;20.53;;;13.70;;
10731;SDS011;5417;42.686;23.244;2022-12-07T15:29:08;20.93;;;15.80;;
10731;SDS011;5417;42.686;23.244;2022-12-07T15:32:39;21.40;;;15.57;;
10731;SDS011;5417;42.686;23.244;2022-12-07T15:34:45;24.77;;;17.53;;
10731;SDS011;5417;42.686;23.244;2022-12-07T15:37:12;29.93;;;20.53;;
10731;SDS011;5417;42.686;23.244;2022-12-07T15:39:39;26.73;;;19.27;;
10731;SDS011;5417;42.686;23.244;2022-12-07T15:42:16;25.30;;;18.43;;
10731;SDS011;5417;42.686;23.244;2022-12-07T15:44:43;22.50;;;16.63;;
10731;SDS011;5417;42.686;23.244;2022-12-07T15:47:28;29.97;;;20.03;;
10731;SDS011;5417;42.686;23.244;2022-12-07T15:49:56;29.17;;;21.30;;
10731;SDS011;5417;42.686;23.244;2022-12-07T15:52:22;28.60;;;19.27;;
10731;SDS011;5417;42.686;23.244;2022-12-07T15:54:49;26.47;;;17.77;;
10731;SDS011;5417;42.686;23.244;2022-12-07T15:57:18;30.53;;;18.47;;
10731;SDS011;5417;42.686;23.244;2022-12-07T15:59:44;34.97;;;23.10;;
10731;SDS011;5417;42.686;23.244;2022-12-07T16:02:12;34.43;;;22.10;;
10731;SDS011;5417;42.686;23.244;2022-12-07T16:04:39;27.20;;;19.77;;
10731;SDS011;5417;42.686;23.244;2022-12-07T16:07:12;45.43;;;34.83;;